Time;durP1;ratioP1;P1;durP2;ratioP2;P2;SDS_P1;SDS_P2;PMS_P1;PMS_P2;Temp;Humidity;BMP_temperature;BMP_pressure;BME280_temperature;BME280_humidity;BME280_pressure;Samples;Min_cycle;Max_cycle;Signal;HPM_P1;HPM_P2
2022/07/22 00:00:18;;;;;;;12.15;2.40;;;16.10;99.90;;;;;;5058085;28;20042;-89
2022/07/22 00:02:43;;;;;;;10.73;2.70;;;16.10;99.90;;;;;;5093209;27;20042;-88
2022/07/22 00:05:10;;;;;;;7.25;2.17;;;16.10;99.90;;;;;;5077822;27;20062;-89
2022/07/22 00:07:37;;;;;;;7.68;2.63;;;16.10;99.90;;;;;;5062053;27;20082;-87
2022/07/22 00:10:05;;;;;;;12.10;3.50;;;16.60;99.90;;;;;;5094317;27;20043;-89
2022/07/22 00:12:31;;;;;;;13.48;2.25;;;16.10;99.90;;;;;;5094811;27;20043;-89
2022/07/22 00:14:57;;;;;;;9.60;2.25;;;16.10;99.90;;;;;;5095148;27;20047;-88
2022/07/22 00:17:22;;;;;;;21.48;2.35;;;16.10;99.90;;;;;;5077767;27;20138;-89
2022/07/22 00:19:48;;;;;;;14.68;2.45;;;16.10;99.90;;;;;;5096319;27;20039;-88
2022/07/22 00:22:14;;;;;;;9.45;1.98;;;16.10;99.90;;;;;;5080044;27;20064;-89
2022/07/22 00:24:40;;;;;;;10.30;2.17;;;16.10;99.90;;;;;;5080294;27;20036;-88
2022/07/22 00:27:05;;;;;;;7.60;2.58;;;16.10;99.90;;;;;;5111411;27;20402;-88
2022/07/22 00:29:31;;;;;;;10.85;2.25;;;16.10;99.90;;;;;;5094645;27;20039;-89
2022/07/22 00:31:57;;;;;;;6.90;2.15;;;16.00;99.90;;;;;;5060802;27;20047;-88
2022/07/22 00:34:23;;;;;;;12.43;1.95;;;16.10;99.90;;;;;;5060912;27;20054;-89
2022/07/22 00:36:48;;;;;;;12.23;1.90;;;16.00;99.90;;;;;;5094226;27;20236;-89
2022/07/22 00:39:15;;;;;;;12.98;1.70;;;16.10;99.90;;;;;;5094314;27;20110;-89
2022/07/22 00:41:41;;;;;;;11.38;1.42;;;16.10;99.90;;;;;;5078420;27;20046;-88
2022/07/22 00:44:08;;;;;;;8.20;1.38;;;16.00;99.90;;;;;;5094777;27;20501;-89
2022/07/22 00:46:35;;;;;;;7.70;1.83;;;16.00;99.90;;;;;;5094076;27;20088;-89
2022/07/22 00:49:02;;;;;;;8.80;2.10;;;16.00;99.90;;;;;;5094187;27;20051;-89
2022/07/22 00:51:29;;;;;;;7.45;1.88;;;16.00;99.90;;;;;;5093695;27;20076;-89
2022/07/22 00:53:59;;;;;;;10.07;1.65;;;16.00;99.90;;;;;;5077458;27;20078;-88
2022/07/22 00:56:26;;;;;;;5.57;1.70;;;16.00;99.90;;;;;;5093274;27;20035;-89
2022/07/22 00:58:54;;;;;;;9.85;1.63;;;16.00;99.90;;;;;;5077192;27;20092;-89
2022/07/22 01:01:19;;;;;;;7.78;1.52;;;16.00;99.90;;;;;;5093748;27;20122;-89
2022/07/22 01:03:45;;;;;;;8.27;1.77;;;16.00;99.90;;;;;;5093641;27;20074;-88
2022/07/22 01:06:11;;;;;;;10.38;2.80;;;16.00;99.90;;;;;;5077583;27;20055;-88
2022/07/22 01:08:38;;;;;;;7.25;1.80;;;15.50;99.90;;;;;;5076591;27;20047;-89
2022/07/22 01:11:12;;;;;;;4.88;1.45;;;16.00;99.90;;;;;;5110629;27;20474;-89
2022/07/22 01:13:37;;;;;;;7.70;1.35;;;16.00;99.90;;;;;;5110318;27;20093;-89
2022/07/22 01:16:05;;;;;;;5.43;1.55;;;15.90;99.90;;;;;;5076093;27;20455;-89
2022/07/22 01:18:31;;;;;;;9.15;1.63;;;16.00;99.90;;;;;;5092812;27;20050;-89
2022/07/22 01:20:57;;;;;;;14.23;2.05;;;15.90;99.90;;;;;;5059863;27;20533;-89
2022/07/22 01:23:23;;;;;;;9.27;1.35;;;15.90;99.90;;;;;;5093620;27;20058;-88
2022/07/22 01:25:49;;;;;;;5.82;1.40;;;16.00;99.90;;;;;;5093115;27;20039;-89
2022/07/22 01:28:15;;;;;;;4.72;1.55;;;15.90;99.90;;;;;;5076503;27;20043;-88
2022/07/22 01:30:40;;;;;;;5.32;1.13;;;15.90;99.90;;;;;;5058963;27;20046;-89
2022/07/22 01:33:06;;;;;;;8.90;1.23;;;15.90;99.90;;;;;;5093292;27;20134;-88
2022/07/22 01:35:32;;;;;;;8.60;1.15;;;16.70;99.90;;;;;;5075396;27;20410;-88
2022/07/22 01:37:58;;;;;;;3.08;0.90;;;15.90;99.90;;;;;;5058962;27;20077;-89
2022/07/22 01:40:23;;;;;;;10.20;1.42;;;15.90;99.90;;;;;;5075487;27;20136;-88
2022/07/22 01:42:49;;;;;;;4.63;0.93;;;15.90;99.90;;;;;;5075175;27;20042;-89
2022/07/22 01:45:15;;;;;;;7.95;1.15;;;15.90;99.90;;;;;;5076287;27;20039;-91
2022/07/22 01:47:41;;;;;;;8.25;1.45;;;15.90;99.90;;;;;;5058733;27;20383;-89
2022/07/22 01:50:09;;;;;;;6.63;1.63;;;15.90;99.90;;;;;;5093021;27;20039;-88
2022/07/22 01:52:36;;;;;;;3.97;1.10;;;15.90;99.90;;;;;;5092777;27;20618;-89
2022/07/22 01:55:02;;;;;;;6.78;1.27;;;15.90;99.90;;;;;;5060308;27;20390;-89
2022/07/22 01:57:28;;;;;;;3.47;0.77;;;15.90;99.90;;;;;;5075520;27;20051;-88
2022/07/22 01:59:53;;;;;;;2.88;0.70;;;15.90;99.90;;;;;;5076193;27;20058;-90
2022/07/22 02:02:19;;;;;;;7.63;1.45;;;15.90;99.90;;;;;;5075977;27;20092;-89
2022/07/22 02:04:45;;;;;;;8.27;0.98;;;15.80;99.90;;;;;;5092188;27;20039;-89
2022/07/22 02:07:11;;;;;;;8.45;1.10;;;15.90;99.90;;;;;;5076459;27;20046;-89
2022/07/22 02:09:36;;;;;;;2.40;0.90;;;15.90;99.90;;;;;;5075811;27;20039;-89
2022/07/22 02:12:02;;;;;;;6.72;1.13;;;15.90;99.90;;;;;;5076811;27;20455;-88
2022/07/22 02:14:28;;;;;;;13.73;2.05;;;15.40;99.90;;;;;;5076550;27;20482;-89
2022/07/22 02:16:55;;;;;;;6.50;1.38;;;15.90;99.90;;;;;;5076532;27;20466;-88
2022/07/22 02:19:21;;;;;;;4.00;0.85;;;15.90;99.90;;;;;;5059325;27;20138;-89
2022/07/22 02:21:47;;;;;;;4.68;1.08;;;15.80;99.90;;;;;;5076557;27;20466;-89
2022/07/22 02:24:12;;;;;;;8.27;1.23;;;16.00;99.90;;;;;;5075843;27;20054;-87
2022/07/22 02:26:38;;;;;;;7.20;1.25;;;15.80;99.90;;;;;;5091571;27;20039;-89
2022/07/22 02:29:04;;;;;;;4.85;0.95;;;15.80;99.90;;;;;;5076284;27;20043;-89
2022/07/22 02:31:30;;;;;;;6.03;1.38;;;15.80;99.90;;;;;;5075964;27;20035;-89
2022/07/22 02:33:55;;;;;;;4.35;1.40;;;15.90;99.90;;;;;;5060165;27;20122;-89
2022/07/22 02:36:21;;;;;;;7.70;1.90;;;15.90;99.90;;;;;;5076744;27;20043;-89
2022/07/22 02:38:47;;;;;;;6.88;1.38;;;15.90;99.90;;;;;;5076016;27;20035;-90
2022/07/22 02:41:13;;;;;;;5.20;1.10;;;15.80;99.90;;;;;;5076733;27;20483;-89
2022/07/22 02:43:39;;;;;;;4.03;1.02;;;15.90;99.90;;;;;;5092513;27;20128;-89
2022/07/22 02:46:05;;;;;;;6.07;1.23;;;15.80;99.90;;;;;;5093025;27;20502;-90
2022/07/22 02:48:30;;;;;;;5.97;1.00;;;15.80;99.90;;;;;;5059739;27;20402;-89
2022/07/22 02:50:56;;;;;;;6.18;1.20;;;15.80;99.90;;;;;;5093319;27;20050;-89
2022/07/22 02:53:22;;;;;;;3.80;1.20;;;15.80;99.90;;;;;;5060661;28;20035;-88
2022/07/22 02:55:48;;;;;;;8.18;1.50;;;15.80;99.90;;;;;;5059118;27;20104;-89
2022/07/22 02:58:14;;;;;;;6.38;1.35;;;15.80;99.90;;;;;;5077267;28;20043;-88
2022/07/22 03:00:39;;;;;;;5.38;1.30;;;15.70;99.90;;;;;;5059893;28;20042;-89
2022/07/22 03:03:05;;;;;;;6.18;1.05;;;15.80;99.90;;;;;;5061339;28;20043;-89
2022/07/22 03:05:31;;;;;;;4.22;1.08;;;15.70;99.90;;;;;;5094901;28;20074;-89
2022/07/22 03:07:57;;;;;;;3.40;1.00;;;15.80;99.90;;;;;;5064796;28;20134;-91
2022/07/22 03:10:23;;;;;;;6.53;1.10;;;15.80;99.90;;;;;;5066028;28;20066;-90
2022/07/22 03:12:49;;;;;;;9.20;0.98;;;15.80;99.90;;;;;;5082169;28;20066;-88
2022/07/22 03:15:15;;;;;;;5.32;2.00;;;15.70;99.90;;;;;;5082809;28;20039;-87
2022/07/22 03:17:40;;;;;;;7.68;1.15;;;15.70;99.90;;;;;;5064204;28;20043;-91
2022/07/22 03:20:09;;;;;;;3.95;1.50;;;15.80;99.90;;;;;;5081601;28;20300;-90
2022/07/22 03:22:37;;;;;;;6.05;1.55;;;15.80;99.90;;;;;;5081338;28;20047;-91
2022/07/22 03:25:04;;;;;;;8.18;1.02;;;15.80;99.90;;;;;;5098793;28;20043;-90
2022/07/22 03:27:29;;;;;;;5.13;1.25;;;15.80;99.90;;;;;;5098149;28;20035;-89
2022/07/22 03:29:55;;;;;;;7.15;1.00;;;15.70;99.90;;;;;;5063368;28;20046;-91
2022/07/22 03:32:21;;;;;;;12.57;1.10;;;15.70;99.90;;;;;;5062197;28;20554;-90
2022/07/22 03:34:47;;;;;;;6.93;0.82;;;15.70;99.90;;;;;;5061484;28;20406;-91
2022/07/22 03:37:14;;;;;;;5.75;1.27;;;16.40;99.90;;;;;;5079338;27;20055;-92
2022/07/22 03:39:40;;;;;;;6.88;1.38;;;15.70;99.90;;;;;;5066964;27;20050;-91
2022/07/22 03:42:06;;;;;;;8.55;1.13;;;15.70;99.90;;;;;;5084464;27;20051;-89
2022/07/22 03:44:31;;;;;;;5.38;0.85;;;15.70;99.90;;;;;;5067209;27;20074;-90
2022/07/22 03:46:57;;;;;;;5.63;1.20;;;15.70;99.90;;;;;;5101363;27;20461;-89
2022/07/22 03:49:23;;;;;;;6.05;1.33;;;16.80;99.90;;;;;;5066707;27;20046;-89
2022/07/22 03:51:49;;;;;;;7.50;1.27;;;15.70;99.90;;;;;;5067704;27;20248;-89
2022/07/22 03:54:15;;;;;;;6.63;1.10;;;15.70;99.90;;;;;;5083175;27;20447;-91
2022/07/22 03:56:41;;;;;;;4.03;1.00;;;16.70;99.90;;;;;;5083431;27;20039;-87
2022/07/22 03:59:07;;;;;;;7.50;1.23;;;15.70;99.90;;;;;;5084390;27;20061;-89
2022/07/22 04:01:33;;;;;;;4.07;0.98;;;15.70;99.90;;;;;;5099705;27;20586;-88
2022/07/22 04:03:58;;;;;;;2.67;1.13;;;15.70;99.90;;;;;;5067704;27;20118;-89
2022/07/22 04:06:24;;;;;;;4.25;0.82;;;15.70;99.90;;;;;;5100991;27;20043;-91
2022/07/22 04:08:50;;;;;;;6.20;1.00;;;15.70;99.90;;;;;;5084200;27;20046;-91
2022/07/22 04:11:19;;;;;;;5.60;1.23;;;15.20;99.90;;;;;;5102296;27;20130;-91
2022/07/22 04:13:45;;;;;;;3.35;0.63;;;15.80;99.90;;;;;;5084575;27;20086;-89
2022/07/22 04:16:11;;;;;;;6.85;0.80;;;15.80;99.90;;;;;;5085537;27;20039;-89
2022/07/22 04:18:37;;;;;;;3.25;1.10;;;16.00;99.90;;;;;;5085282;27;20099;-90
2022/07/22 04:21:06;;;;;;;6.70;1.42;;;15.70;99.90;;;;;;5121797;27;20043;-90
2022/07/22 04:23:32;;;;;;;3.95;0.90;;;15.70;99.90;;;;;;5103188;27;20043;-90
2022/07/22 04:25:58;;;;;;;4.30;1.08;;;15.70;99.90;;;;;;5102090;27;20031;-91
2022/07/22 04:28:24;;;;;;;9.20;0.98;;;15.70;99.90;;;;;;5097865;27;20065;-89
2022/07/22 04:30:50;;;;;;;14.13;1.10;;;15.70;99.90;;;;;;5064403;27;20442;-90
2022/07/22 04:33:15;;;;;;;6.00;0.93;;;15.80;99.90;;;;;;5082069;27;20091;-90
2022/07/22 04:35:41;;;;;;;3.22;0.90;;;16.80;99.90;;;;;;5061721;28;20107;-91
2022/07/22 04:38:10;;;;;;;10.68;1.20;;;16.10;99.90;;;;;;5096422;28;20063;-90
2022/07/22 04:40:36;;;;;;;8.77;0.90;;;15.80;99.90;;;;;;5095601;28;20036;-90
2022/07/22 04:43:02;;;;;;;4.22;0.80;;;15.30;99.90;;;;;;5080042;28;20090;-91
2022/07/22 04:45:27;;;;;;;5.45;1.05;;;15.80;99.90;;;;;;5082224;28;20074;-92
2022/07/22 04:47:53;;;;;;;11.88;0.95;;;15.80;99.90;;;;;;5066546;28;20081;-92
2022/07/22 04:50:19;;;;;;;4.80;1.02;;;15.80;99.90;;;;;;5084994;28;20040;-93
2022/07/22 04:52:46;;;;;;;4.93;1.02;;;15.80;99.90;;;;;;5069529;28;20099;-93
2022/07/22 04:55:12;;;;;;;7.30;1.20;;;15.80;99.90;;;;;;5117115;28;20095;-91
2022/07/22 04:57:38;;;;;;;5.88;1.13;;;15.80;99.90;;;;;;5067234;28;20120;-90
2022/07/22 05:00:05;;;;;;;3.60;0.73;;;15.90;99.90;;;;;;5084231;28;20035;-91
2022/07/22 05:02:31;;;;;;;3.65;0.60;;;15.90;99.90;;;;;;5083927;28;20047;-89
2022/07/22 05:04:57;;;;;;;4.22;0.80;;;15.90;99.90;;;;;;5066589;28;20090;-92
2022/07/22 05:07:22;;;;;;;6.25;0.65;;;15.90;99.90;;;;;;5067090;28;20043;-93
2022/07/22 05:09:48;;;;;;;3.47;1.00;;;15.90;99.90;;;;;;5082491;28;20403;-92
2022/07/22 05:12:14;;;;;;;3.30;1.10;;;15.90;99.90;;;;;;5085554;28;20042;-93
2022/07/22 05:14:40;;;;;;;2.72;0.85;;;15.90;99.90;;;;;;5068549;28;20490;-90
2022/07/22 05:17:10;;;;;;;3.35;0.80;;;15.90;99.90;;;;;;5081860;28;20039;-90
2022/07/22 05:19:40;;;;;;;4.97;0.80;;;15.90;99.90;;;;;;5094027;28;20110;-89
2022/07/22 05:22:08;;;;;;;4.78;0.70;;;15.90;99.90;;;;;;5115588;28;20594;-92
2022/07/22 05:24:35;;;;;;;4.03;0.85;;;15.90;99.90;;;;;;5081506;28;20395;-91
2022/07/22 05:27:01;;;;;;;3.15;0.80;;;15.90;99.90;;;;;;5095223;28;20406;-91
2022/07/22 05:29:26;;;;;;;6.35;0.90;;;16.00;99.90;;;;;;5080057;28;20049;-91
2022/07/22 05:31:52;;;;;;;3.40;0.90;;;16.00;99.90;;;;;;5075949;28;20073;-93
2022/07/22 05:34:18;;;;;;;6.03;1.38;;;16.90;99.90;;;;;;5076721;28;20036;-93
2022/07/22 05:36:44;;;;;;;5.18;1.00;;;16.00;99.90;;;;;;5093928;28;20079;-92
2022/07/22 05:39:09;;;;;;;3.03;0.77;;;16.10;99.90;;;;;;5075753;28;20048;-93
2022/07/22 05:41:37;;;;;;;5.90;0.75;;;16.10;99.90;;;;;;5059631;28;20515;-92
2022/07/22 05:44:02;;;;;;;7.10;1.00;;;16.10;99.90;;;;;;5074374;28;20081;-93
2022/07/22 05:46:28;;;;;;;3.38;0.65;;;16.10;99.90;;;;;;5059032;28;20077;-93
2022/07/22 05:48:54;;;;;;;3.30;1.05;;;16.20;99.90;;;;;;5057788;28;20096;-93
2022/07/22 05:51:21;;;;;;;6.18;0.90;;;16.20;99.90;;;;;;5077172;28;20166;-91
2022/07/22 05:53:48;;;;;;;3.95;0.90;;;16.20;99.90;;;;;;5110942;28;20160;-93
2022/07/22 05:56:15;;;;;;;3.30;0.70;;;16.30;99.90;;;;;;5075974;28;20059;-92
2022/07/22 05:58:46;;;;;;;2.88;0.77;;;16.30;99.90;;;;;;5077951;28;20051;-93
2022/07/22 06:01:13;;;;;;;5.65;0.90;;;16.30;99.90;;;;;;5105286;28;20056;-92
2022/07/22 06:03:40;;;;;;;4.22;0.98;;;16.30;99.90;;;;;;5084379;28;20074;-94
2022/07/22 06:06:09;;;;;;;4.85;1.10;;;16.30;99.90;;;;;;5106635;28;20082;-93
2022/07/22 06:08:36;;;;;;;2.95;0.80;;;16.30;99.90;;;;;;5106318;28;20061;-93
2022/07/22 06:11:19;;;;;;;3.38;0.90;;;16.30;99.90;;;;;;5078091;28;20050;-93
2022/07/22 06:13:50;;;;;;;4.95;0.77;;;16.30;99.90;;;;;;5105093;28;20089;-94
2022/07/22 06:16:16;;;;;;;3.08;0.63;;;16.40;99.90;;;;;;5107535;28;20050;-92
2022/07/22 06:18:45;;;;;;;3.83;0.80;;;16.40;99.90;;;;;;5105004;28;20055;-91
2022/07/22 06:21:15;;;;;;;0.80;0.52;;;16.40;99.90;;;;;;5107496;28;20032;-93
2022/07/22 06:23:45;;;;;;;5.85;0.70;;;16.40;99.90;;;;;;5106946;28;20107;-92
2022/07/22 06:26:16;;;;;;;2.95;1.05;;;16.50;99.90;;;;;;5105668;28;20438;-91
2022/07/22 06:28:48;;;;;;;7.25;0.98;;;16.50;99.90;;;;;;5107187;28;20049;-92
2022/07/22 06:31:22;;;;;;;9.02;0.85;;;16.50;99.90;;;;;;5107476;28;20143;-96
2022/07/22 06:33:53;;;;;;;5.72;0.93;;;16.60;99.90;;;;;;5105591;28;20147;-95
2022/07/22 06:36:19;;;;;;;7.65;0.90;;;16.40;99.90;;;;;;5105004;28;20525;-96
2022/07/22 06:38:45;;;;;;;8.48;1.15;;;16.80;99.90;;;;;;5089870;28;20051;-94
2022/07/22 06:41:18;;;;;;;7.47;0.85;;;16.90;99.90;;;;;;5110082;28;20051;-94
2022/07/22 06:43:44;;;;;;;5.65;0.80;;;16.90;99.90;;;;;;5093484;28;20142;-94
2022/07/22 06:46:09;;;;;;;5.38;0.65;;;17.20;99.90;;;;;;5076265;28;20071;-94
2022/07/22 06:48:35;;;;;;;6.68;1.38;;;17.10;99.90;;;;;;5057751;28;20555;-96
2022/07/22 06:51:01;;;;;;;1.98;0.80;;;17.10;99.90;;;;;;5059399;28;20188;-95
2022/07/22 06:53:26;;;;;;;6.78;0.70;;;17.10;99.90;;;;;;5058066;28;20073;-95
2022/07/22 06:55:52;;;;;;;2.88;1.05;;;17.20;99.90;;;;;;5073246;28;20042;-96
2022/07/22 06:58:18;;;;;;;8.63;1.33;;;17.20;99.90;;;;;;5074886;28;20794;-96
2022/07/22 07:00:44;;;;;;;2.58;0.40;;;17.40;99.90;;;;;;5055319;28;20050;-95
2022/07/22 07:03:09;;;;;;;1.30;0.47;;;17.30;99.90;;;;;;5056360;28;20048;-96
2022/07/22 07:05:35;;;;;;;8.05;1.52;;;17.30;99.90;;;;;;5072530;28;20149;-95
2022/07/22 07:08:01;;;;;;;5.32;0.63;;;17.40;99.90;;;;;;5057989;28;20505;-95
2022/07/22 07:10:28;;;;;;;2.58;0.50;;;17.10;99.90;;;;;;5056948;28;20079;-95
2022/07/22 07:12:58;;;;;;;5.18;0.73;;;17.50;99.90;;;;;;5091618;28;20047;-96
2022/07/22 07:15:25;;;;;;;1.63;0.50;;;17.50;99.90;;;;;;5076762;28;20047;-94
2022/07/22 07:17:53;;;;;;;2.88;0.50;;;17.60;99.90;;;;;;5076429;28;20046;-95
2022/07/22 07:20:22;;;;;;;1.75;0.50;;;17.70;99.90;;;;;;5092949;28;20074;-94
2022/07/22 07:22:48;;;;;;;2.33;0.38;;;17.70;99.90;;;;;;5074559;28;20055;-94
2022/07/22 07:25:15;;;;;;;6.43;0.70;;;17.70;99.90;;;;;;5092654;28;20410;-96
2022/07/22 07:27:43;;;;;;;5.65;0.93;;;17.80;99.90;;;;;;5075053;28;20300;-91
2022/07/22 07:30:13;;;;;;;3.53;0.50;;;17.80;99.90;;;;;;5125508;28;20054;-96
2022/07/22 07:32:41;;;;;;;2.78;0.52;;;17.90;99.90;;;;;;5105870;28;20408;-96
2022/07/22 07:35:29;;;;;;;2.85;0.50;;;18.00;99.90;;;;;;5071492;28;20048;-96
2022/07/22 07:38:03;;;;;;;4.75;0.43;;;17.10;99.90;;;;;;5092532;28;20335;-96
2022/07/22 07:40:52;;;;;;;0.98;0.43;;;18.00;99.90;;;;;;5085492;28;20032;-96
2022/07/22 07:43:58;;;;;;;2.97;0.40;;;18.20;99.90;;;;;;5051161;28;20055;-96
2022/07/22 07:47:21;;;;;;;2.63;0.40;;;18.10;99.90;;;;;;5006764;28;20045;-96
2022/07/22 07:54:12;;;;;;;4.25;0.50;;;18.10;99.90;;;;;;4975436;28;20046;-96
2022/07/22 08:00:33;;;;;;;3.72;0.47;;;17.40;99.90;;;;;;4879823;29;20053;-96
2022/07/22 08:10:46;;;;;;;2.20;0.32;;;18.50;99.90;;;;;;4820789;29;20064;-96
2022/07/22 08:14:39;;;;;;;2.58;0.60;;;18.50;99.90;;;;;;4832595;29;20065;-95
2022/07/22 08:18:36;;;;;;;1.00;0.43;;;18.70;99.90;;;;;;4830469;29;20062;-96
2022/07/22 08:25:31;;;;;;;5.25;0.70;;;18.40;99.90;;;;;;4848836;29;20055;-96
2022/07/22 08:29:10;;;;;;;4.70;0.52;;;18.40;99.90;;;;;;4811878;29;20035;-94
2022/07/22 08:36:08;;;;;;;6.75;0.70;;;17.60;99.90;;;;;;4792125;29;20061;-95
2022/07/22 08:43:50;;;;;;;5.00;0.60;;;18.10;99.90;;;;;;4799101;29;20114;-96
2022/07/22 08:47:14;;;;;;;4.57;1.17;;;17.80;99.90;;;;;;4804529;29;20032;-95
2022/07/22 08:53:52;;;;;;;3.88;0.73;;;17.40;99.90;;;;;;4775224;29;20039;-96
2022/07/22 09:04:03;;;;;;;4.18;0.90;;;18.00;99.90;;;;;;5236770;22;20109;-96
2022/07/22 09:06:36;;;;;;;5.30;0.65;;;19.20;99.90;;;;;;5036557;28;20049;-96
2022/07/22 09:09:10;;;;;;;1.23;0.30;;;17.20;99.90;;;;;;5076597;28;20049;-96
2022/07/22 09:11:46;;;;;;;3.28;0.75;;;17.90;99.90;;;;;;5044938;28;20048;-96
2022/07/22 09:14:45;;;;;;;5.50;0.63;;;18.10;99.90;;;;;;5071903;28;20103;-94
2022/07/22 09:17:39;;;;;;;3.30;0.70;;;18.20;99.90;;;;;;5059559;28;20059;-96
2022/07/22 09:20:18;;;;;;;4.55;0.73;;;18.30;99.90;;;;;;5060898;28;20041;-96
2022/07/22 09:22:47;;;;;;;1.20;0.47;;;18.40;99.90;;;;;;5042989;28;20049;-92
2022/07/22 09:25:32;;;;;;;11.43;0.70;;;18.90;99.90;;;;;;5064931;28;20067;-91
2022/07/22 09:28:26;;;;;;;1.95;0.50;;;17.90;99.90;;;;;;5061632;28;20484;-94
2022/07/22 09:30:58;;;;;;;3.05;0.63;;;18.60;99.90;;;;;;5032093;28;20140;-93
2022/07/22 09:33:26;;;;;;;3.75;0.70;;;18.60;99.90;;;;;;5062025;28;20485;-94
2022/07/22 09:36:03;;;;;;;3.20;0.40;;;18.50;99.90;;;;;;5039282;28;20096;-94
2022/07/22 09:38:33;;;;;;;6.40;0.63;;;18.50;99.90;;;;;;5050331;28;20160;-95
2022/07/22 09:40:59;;;;;;;5.10;0.60;;;17.80;99.90;;;;;;5030167;28;20112;-96
2022/07/22 09:43:32;;;;;;;3.40;0.63;;;18.50;99.90;;;;;;5026576;28;20504;-94
2022/07/22 09:46:00;;;;;;;5.47;1.02;;;18.50;99.90;;;;;;5058909;28;20516;-95
2022/07/22 09:48:26;;;;;;;3.13;0.40;;;18.50;99.90;;;;;;5042901;28;20100;-95
2022/07/22 09:50:56;;;;;;;3.33;0.40;;;18.60;99.90;;;;;;5008984;28;20113;-94
2022/07/22 09:53:28;;;;;;;4.53;0.65;;;18.60;99.90;;;;;;5039162;28;20045;-94
2022/07/22 09:56:03;;;;;;;4.93;0.70;;;18.70;99.90;;;;;;5010152;28;20511;-94
2022/07/22 09:58:32;;;;;;;2.25;0.38;;;18.80;99.90;;;;;;5025422;28;20040;-94
2022/07/22 10:01:04;;;;;;;3.15;0.50;;;18.90;99.90;;;;;;5027593;28;20053;-94
2022/07/22 10:03:36;;;;;;;4.90;0.57;;;18.90;99.90;;;;;;5021922;28;20084;-94
2022/07/22 10:06:06;;;;;;;;;;;19.00;99.90;;;;;;5034752;28;20046;-94
2022/07/22 10:08:33;;;;;;;2.05;0.32;;;19.10;99.90;;;;;;5018745;28;19936;-95
2022/07/22 10:11:10;;;;;;;0.77;0.30;;;19.10;99.90;;;;;;5018435;28;20570;-93
2022/07/22 10:13:41;;;;;;;3.58;0.40;;;19.20;99.90;;;;;;5041796;28;20041;-96
2022/07/22 10:16:07;;;;;;;0.98;0.28;;;19.20;99.90;;;;;;5040143;28;20045;-94
2022/07/22 10:18:35;;;;;;;2.83;0.77;;;19.30;99.90;;;;;;5025154;28;20052;-93
2022/07/22 10:21:10;;;;;;;7.47;0.47;;;19.50;99.90;;;;;;5027735;28;20053;-93
2022/07/22 10:23:56;;;;;;;2.20;0.60;;;19.30;99.90;;;;;;5044823;28;20049;-94
2022/07/22 10:27:01;;;;;;;4.65;0.60;;;19.40;99.90;;;;;;5043817;28;20037;-94
2022/07/22 10:29:44;;;;;;;2.90;0.52;;;19.50;99.90;;;;;;5062326;28;20048;-92
2022/07/22 10:32:21;;;;;;;1.20;0.30;;;19.60;99.90;;;;;;5030084;28;20049;-92
2022/07/22 10:35:06;;;;;;;2.90;0.60;;;19.70;99.90;;;;;;5063337;28;20053;-96
2022/07/22 10:37:40;;;;;;;2.90;0.40;;;19.80;99.90;;;;;;5042957;28;20044;-95
2022/07/22 10:40:16;;;;;;;4.40;0.60;;;19.90;99.90;;;;;;5063111;28;20069;-95
2022/07/22 10:43:00;;;;;;;3.72;0.60;;;20.00;99.90;;;;;;5039038;28;20079;-95
2022/07/22 10:45:36;;;;;;;3.38;0.60;;;20.10;99.90;;;;;;5055634;28;20546;-94
2022/07/22 10:48:09;;;;;;;5.85;0.50;;;20.00;99.90;;;;;;5056836;28;20041;-96
2022/07/22 10:50:43;;;;;;;1.40;0.47;;;20.00;99.90;;;;;;5036997;28;20060;-94
2022/07/22 10:53:15;;;;;;;2.58;0.50;;;20.00;99.90;;;;;;5037083;28;20459;-91
2022/07/22 10:56:18;;;;;;;4.63;0.52;;;20.00;99.90;;;;;;5035784;28;20060;-93
2022/07/22 10:58:53;;;;;;;1.98;0.30;;;20.00;99.90;;;;;;5053649;28;20088;-92
2022/07/22 11:01:23;;;;;;;3.63;0.40;;;20.10;99.90;;;;;;5054810;28;20049;-95
2022/07/22 11:03:50;;;;;;;5.50;0.50;;;20.10;99.90;;;;;;5033110;28;20048;-90
2022/07/22 11:06:29;;;;;;;2.42;0.45;;;20.20;99.90;;;;;;5017505;28;20041;-94
2022/07/22 11:08:58;;;;;;;4.28;0.50;;;20.20;99.90;;;;;;5036354;28;20068;-96
2022/07/22 11:11:42;;;;;;;1.60;0.40;;;20.20;99.90;;;;;;5037029;28;20119;-96
2022/07/22 11:14:16;;;;;;;1.70;0.50;;;20.10;99.90;;;;;;5034602;28;20053;-95
2022/07/22 11:16:45;;;;;;;2.13;0.20;;;19.90;99.90;;;;;;5020063;28;20053;-96
2022/07/22 11:19:32;;;;;;;2.70;0.40;;;19.60;99.90;;;;;;4982937;28;20046;-95
2022/07/22 11:22:12;;;;;;;4.85;0.63;;;19.60;99.90;;;;;;4982912;28;20058;-96
2022/07/22 11:24:50;;;;;;;3.33;0.37;;;19.40;99.90;;;;;;4967188;28;20117;-96
2022/07/22 11:27:25;;;;;;;1.33;0.38;;;19.40;99.90;;;;;;4967527;28;20054;-95
2022/07/22 11:30:06;;;;;;;3.72;0.63;;;18.70;99.90;;;;;;4982033;28;20058;-95
2022/07/22 11:32:33;;;;;;;1.38;0.30;;;19.30;99.90;;;;;;4981162;28;20097;-95
2022/07/22 11:35:05;;;;;;;0.40;0.10;;;19.30;99.90;;;;;;4984543;28;20097;-96
2022/07/22 11:37:37;;;;;;;3.00;0.20;;;19.40;99.90;;;;;;4967569;28;20101;-96
2022/07/22 11:40:06;;;;;;;1.45;0.10;;;19.30;99.90;;;;;;4965295;28;20054;-95
2022/07/22 11:42:32;;;;;;;0.52;0.10;;;19.40;99.90;;;;;;4963923;28;20038;-95
2022/07/22 11:44:59;;;;;;;1.35;0.20;;;19.40;99.90;;;;;;4966831;28;20054;-95
2022/07/22 11:47:50;;;;;;;0.80;0.20;;;18.90;99.90;;;;;;4928418;29;20059;-95
2022/07/22 11:50:34;;;;;;;5.93;0.50;;;19.00;99.90;;;;;;4920898;29;20092;-94
2022/07/22 11:53:05;;;;;;;2.70;0.20;;;19.90;99.90;;;;;;4921029;29;20508;-94
2022/07/22 11:55:31;;;;;;;5.18;0.22;;;20.00;99.90;;;;;;4923066;28;20056;-95
2022/07/22 11:58:04;;;;;;;0.32;0.13;;;19.80;99.90;;;;;;4978654;28;20123;-95
2022/07/22 12:00:30;;;;;;;2.35;0.20;;;20.00;99.90;;;;;;4982615;28;20066;-96
2022/07/22 12:02:57;;;;;;;1.48;0.20;;;20.00;99.90;;;;;;4983852;28;20050;-96
2022/07/22 12:05:25;;;;;;;2.13;0.32;;;20.10;99.90;;;;;;5016873;28;20117;-96
2022/07/22 12:07:51;;;;;;;2.55;0.20;;;20.00;99.90;;;;;;4984591;28;20054;-95
2022/07/22 12:10:20;;;;;;;2.28;0.22;;;20.10;99.90;;;;;;4966693;28;20046;-95
2022/07/22 12:12:47;;;;;;;1.40;0.30;;;20.20;99.90;;;;;;4982856;28;20052;-94
2022/07/22 12:15:13;;;;;;;6.43;0.40;;;19.80;99.90;;;;;;4965786;28;20046;-95
2022/07/22 12:17:41;;;;;;;0.82;0.17;;;19.50;99.90;;;;;;4966751;28;20106;-95
2022/07/22 12:20:12;;;;;;;0.43;0.20;;;20.60;99.90;;;;;;5039501;28;20340;-94
2022/07/22 12:22:55;;;;;;;0.85;0.13;;;20.60;99.90;;;;;;5023242;28;20056;-95
2022/07/22 12:25:29;;;;;;;0.57;0.10;;;20.60;99.90;;;;;;5057758;28;20053;-95
2022/07/22 12:28:02;;;;;;;3.63;0.38;;;19.90;99.90;;;;;;4990945;28;20508;-95
2022/07/22 12:30:28;;;;;;;0.35;0.10;;;19.80;99.90;;;;;;5027220;28;20092;-95
2022/07/22 12:33:07;;;;;;;1.85;0.20;;;20.70;99.90;;;;;;5032051;28;20046;-96
2022/07/22 12:35:42;;;;;;;1.23;0.20;;;20.80;99.90;;;;;;5031278;28;20057;-95
2022/07/22 12:38:22;;;;;;;2.45;0.32;;;20.00;99.90;;;;;;5034004;28;20128;-96
2022/07/22 12:40:52;;;;;;;5.75;0.52;;;20.50;99.90;;;;;;5050378;28;20029;-96
2022/07/22 12:43:41;;;;;;;1.50;0.20;;;20.90;99.90;;;;;;5052009;28;20041;-96
2022/07/22 12:46:07;;;;;;;0.30;0.15;;;20.20;99.90;;;;;;5051119;28;20041;-96
2022/07/22 12:49:00;;;;;;;2.95;0.20;;;20.80;99.90;;;;;;5031079;28;20125;-96
2022/07/22 12:51:26;;;;;;;4.28;0.35;;;20.80;99.90;;;;;;5042074;28;20107;-96
2022/07/22 12:53:55;;;;;;;1.42;0.40;;;20.80;99.90;;;;;;5040963;28;20056;-96
2022/07/22 12:56:22;;;;;;;4.03;0.30;;;20.70;99.90;;;;;;5024172;28;20056;-96
2022/07/22 12:58:50;;;;;;;3.28;0.30;;;20.70;99.90;;;;;;5021649;28;20065;-95
2022/07/22 13:01:20;;;;;;;2.72;0.32;;;20.70;99.90;;;;;;5023929;28;20045;-96
2022/07/22 13:03:57;;;;;;;9.77;0.50;;;21.20;99.90;;;;;;5039281;28;20096;-96
2022/07/22 13:06:29;;;;;;;2.22;0.45;;;20.80;99.90;;;;;;5039347;28;20060;-94
2022/07/22 13:08:55;;;;;;;0.80;0.20;;;20.80;99.90;;;;;;5020322;28;20187;-96
2022/07/22 13:11:27;;;;;;;1.42;0.32;;;20.90;99.90;;;;;;5004246;28;20228;-96
2022/07/22 13:13:53;;;;;;;2.13;0.30;;;20.90;99.90;;;;;;5006236;28;20063;-96
2022/07/22 13:16:20;;;;;;;3.25;0.45;;;21.00;99.90;;;;;;5006238;28;20125;-95
2022/07/22 13:18:54;;;;;;;2.80;0.30;;;21.00;99.90;;;;;;5021481;28;20053;-96
2022/07/22 13:21:21;;;;;;;0.85;0.22;;;21.10;99.90;;;;;;5021295;28;20053;-95
2022/07/22 13:23:52;;;;;;;2.60;0.32;;;21.10;99.90;;;;;;5024025;28;20072;-95
2022/07/22 13:26:25;;;;;;;3.25;0.40;;;21.10;99.90;;;;;;5031869;28;20045;-94
2022/07/22 13:28:52;;;;;;;2.03;0.43;;;21.00;99.90;;;;;;5018957;28;20069;-94
2022/07/22 13:31:19;;;;;;;1.65;0.30;;;21.00;99.90;;;;;;5001249;28;20111;-96
2022/07/22 13:33:48;;;;;;;3.08;0.30;;;20.70;99.90;;;;;;4984632;28;20053;-96
2022/07/22 13:36:14;;;;;;;1.95;0.40;;;20.80;99.90;;;;;;5018166;28;20049;-96
2022/07/22 13:38:42;;;;;;;4.22;0.40;;;20.70;99.90;;;;;;5000768;28;20050;-96
2022/07/22 13:41:16;;;;;;;0.65;0.20;;;20.70;99.90;;;;;;5041182;28;20464;-96
2022/07/22 13:43:46;;;;;;;2.20;0.45;;;20.80;99.90;;;;;;5040298;28;20053;-95